createdAt,value
2022-10-02T00:00:07.264Z,12.10
2022-10-02T00:01:32.588Z,12.10
2022-10-02T00:02:40.694Z,12.10
2022-10-02T00:03:44.646Z,12.10
2022-10-02T00:04:54.301Z,12.10
2022-10-02T00:06:05.206Z,12.10
2022-10-02T00:07:10.133Z,12.10
2022-10-02T00:08:25.782Z,12.00
2022-10-02T00:09:38.873Z,12.00
2022-10-02T00:10:54.993Z,12.00
2022-10-02T00:12:00.002Z,12.00
2022-10-02T00:13:07.512Z,12.00
2022-10-02T00:14:16.801Z,12.10
2022-10-02T00:15:27.490Z,12.10
2022-10-02T00:16:38.566Z,12.10
2022-10-02T00:17:44.776Z,12.10
2022-10-02T00:18:49.071Z,12.10
2022-10-02T00:19:56.524Z,12.20
2022-10-02T00:21:22.819Z,12.20
2022-10-02T00:22:44.502Z,12.10
2022-10-02T00:23:51.451Z,12.10
2022-10-02T00:25:03.365Z,12.10
2022-10-02T00:26:25.490Z,12.10
2022-10-02T00:27:35.893Z,12.10
2022-10-02T00:28:47.784Z,12.10
2022-10-02T00:29:56.137Z,12.10
2022-10-02T00:31:17.344Z,12.10
2022-10-02T00:32:44.426Z,12.10
2022-10-02T00:34:21.831Z,12.10
2022-10-02T00:35:57.440Z,12.00
2022-10-02T00:37:07.939Z,12.00
2022-10-02T00:38:18.499Z,12.00
2022-10-02T00:39:26.114Z,12.00
2022-10-02T00:40:48.948Z,12.00
2022-10-02T00:41:59.658Z,12.10
2022-10-02T00:43:27.615Z,12.00
2022-10-02T00:44:51.515Z,12.00
2022-10-02T00:46:13.307Z,12.00
2022-10-02T00:47:30.290Z,12.00
2022-10-02T00:48:40.718Z,12.00
2022-10-02T00:49:57.498Z,12.00
2022-10-02T00:51:23.737Z,12.10
2022-10-02T00:52:55.798Z,12.00
2022-10-02T00:54:28.169Z,12.00
2022-10-02T00:55:52.931Z,12.00
2022-10-02T00:57:03.314Z,12.00
2022-10-02T00:58:13.032Z,12.00
2022-10-02T00:59:26.385Z,12.00
2022-10-02T01:00:28.309Z,12.00
2022-10-02T01:01:41.794Z,12.00
2022-10-02T01:02:53.799Z,12.00
2022-10-02T01:03:56.567Z,12.00
2022-10-02T01:05:00.674Z,12.00
2022-10-02T01:06:02.939Z,12.00
2022-10-02T01:07:10.153Z,12.00
2022-10-02T01:08:12.842Z,12.00
2022-10-02T01:09:15.157Z,12.00
2022-10-02T01:10:17.712Z,12.00
2022-10-02T01:11:21.564Z,12.00
2022-10-02T01:12:24.312Z,12.00
2022-10-02T01:13:26.802Z,12.00
2022-10-02T01:14:36.765Z,12.00
2022-10-02T01:15:44.360Z,12.00
2022-10-02T01:16:46.817Z,12.00
2022-10-02T01:17:51.068Z,12.00
2022-10-02T01:18:53.002Z,12.00
2022-10-02T01:19:55.983Z,12.00
2022-10-02T01:21:08.023Z,12.00
2022-10-02T01:22:33.995Z,12.00
2022-10-02T01:23:43.682Z,12.00
2022-10-02T01:24:52.021Z,12.00
2022-10-02T01:25:53.870Z,11.90
2022-10-02T01:26:55.720Z,11.90
2022-10-02T01:27:57.686Z,11.90
2022-10-02T01:28:59.488Z,11.90
2022-10-02T01:30:05.132Z,11.90
2022-10-02T01:31:16.297Z,11.90
2022-10-02T01:32:18.663Z,11.90
2022-10-02T01:33:21.166Z,11.90
2022-10-02T01:34:24.062Z,11.90
2022-10-02T01:35:31.669Z,11.80
2022-10-02T01:36:33.975Z,11.90
2022-10-02T01:37:39.549Z,11.90
2022-10-02T01:38:42.982Z,11.90
2022-10-02T01:39:45.324Z,11.90
2022-10-02T01:40:47.192Z,11.90
2022-10-02T01:41:49.040Z,11.90
2022-10-02T01:42:51.289Z,11.90
2022-10-02T01:43:57.593Z,11.90
2022-10-02T01:44:59.849Z,11.90
2022-10-02T01:46:07.797Z,11.90
2022-10-02T01:47:19.813Z,11.90
2022-10-02T01:48:47.387Z,11.90
2022-10-02T01:50:19.963Z,11.80
2022-10-02T01:51:33.463Z,11.90
2022-10-02T01:53:13.806Z,11.90
2022-10-02T01:54:18.688Z,11.80
2022-10-02T01:55:34.020Z,11.90
2022-10-02T01:57:02.934Z,11.80
2022-10-02T01:58:10.954Z,11.80
2022-10-02T01:59:38.393Z,11.80
2022-10-02T02:00:53.063Z,11.80
2022-10-02T02:02:09.623Z,11.80
2022-10-02T02:03:35.174Z,11.80
2022-10-02T02:04:50.308Z,11.80
2022-10-02T02:06:13.104Z,11.80
2022-10-02T02:07:25.948Z,11.80
2022-10-02T02:09:09.763Z,11.80
2022-10-02T02:10:25.176Z,11.80
2022-10-02T02:11:27.585Z,11.80
2022-10-02T02:12:51.055Z,11.80
2022-10-02T02:14:04.321Z,11.80
2022-10-02T02:15:53.775Z,11.70
2022-10-02T02:17:15.353Z,11.70
2022-10-02T02:18:34.461Z,11.70
2022-10-02T02:19:47.409Z,11.70
2022-10-02T02:20:54.164Z,11.70
2022-10-02T02:21:59.676Z,11.70
2022-10-02T02:23:08.396Z,11.70
2022-10-02T02:24:40.160Z,11.70
2022-10-02T02:25:45.850Z,11.70
2022-10-02T02:26:48.516Z,11.70
2022-10-02T02:27:54.646Z,11.70
2022-10-02T02:29:03.661Z,11.70
2022-10-02T02:30:09.498Z,11.70
2022-10-02T02:31:18.669Z,11.70
2022-10-02T02:32:28.618Z,11.70
2022-10-02T02:33:40.011Z,11.70
2022-10-02T02:34:46.986Z,11.70
2022-10-02T02:35:53.957Z,11.70
2022-10-02T02:37:01.660Z,11.70
2022-10-02T02:38:37.231Z,11.70
2022-10-02T02:39:59.856Z,11.70
2022-10-02T02:41:16.783Z,11.70
2022-10-02T02:42:32.515Z,11.70
2022-10-02T02:43:59.641Z,11.70
2022-10-02T02:45:12.201Z,11.70
2022-10-02T02:46:28.027Z,11.70
2022-10-02T02:47:45.894Z,11.70
2022-10-02T02:48:52.441Z,11.70
2022-10-02T02:50:00.264Z,11.70
2022-10-02T02:51:09.424Z,11.70
2022-10-02T02:52:18.941Z,11.70
2022-10-02T02:53:26.922Z,11.70
2022-10-02T02:54:43.640Z,11.80
2022-10-02T02:55:52.572Z,11.80
2022-10-02T02:56:56.988Z,11.80
2022-10-02T02:58:03.284Z,11.80
2022-10-02T02:59:13.421Z,11.80
2022-10-02T03:00:16.756Z,11.80
2022-10-02T03:01:18.641Z,11.90
2022-10-02T03:02:20.559Z,11.80
2022-10-02T03:03:22.647Z,11.90
2022-10-02T03:04:24.364Z,11.90
2022-10-02T03:05:28.278Z,11.90
2022-10-02T03:06:33.333Z,11.90
2022-10-02T03:07:35.446Z,11.90
2022-10-02T03:08:38.142Z,11.90
2022-10-02T03:09:40.957Z,12.00
2022-10-02T03:10:51.958Z,12.00
2022-10-02T03:12:12.144Z,12.00
2022-10-02T03:13:38.094Z,12.00
2022-10-02T03:15:08.301Z,12.00
2022-10-02T03:16:32.875Z,12.00
2022-10-02T03:17:48.370Z,12.00
2022-10-02T03:19:14.727Z,12.00
2022-10-02T03:20:28.954Z,12.10
2022-10-02T03:21:37.671Z,12.10
2022-10-02T03:23:23.523Z,12.10
2022-10-02T03:25:21.547Z,12.10
2022-10-02T03:26:45.923Z,12.10
2022-10-02T03:28:03.495Z,12.10
2022-10-02T03:29:27.347Z,12.10
2022-10-02T03:30:30.425Z,12.10
2022-10-02T03:31:33.988Z,12.10
2022-10-02T03:32:37.948Z,12.10
2022-10-02T03:33:40.426Z,12.10
2022-10-02T03:34:42.320Z,12.10
2022-10-02T03:35:45.340Z,12.10
2022-10-02T03:36:48.030Z,12.20
2022-10-02T03:37:57.086Z,12.20
2022-10-02T03:40:27.411Z,12.20
2022-10-02T03:41:29.366Z,12.20
2022-10-02T03:42:34.694Z,12.20
2022-10-02T03:43:36.440Z,12.20
2022-10-02T03:44:38.234Z,12.20
2022-10-02T03:45:51.654Z,12.20
2022-10-02T03:46:53.739Z,12.10
2022-10-02T03:47:55.681Z,12.10
2022-10-02T03:48:57.441Z,12.10
2022-10-02T03:49:59.230Z,12.10
2022-10-02T03:51:00.929Z,12.10
2022-10-02T03:52:02.759Z,12.10
2022-10-02T03:53:35.028Z,12.10
2022-10-02T03:54:37.277Z,12.10
2022-10-02T03:55:43.002Z,12.10
2022-10-02T03:56:55.795Z,12.10
2022-10-02T03:57:58.514Z,12.00
2022-10-02T03:59:02.545Z,12.00
2022-10-02T04:00:13.262Z,12.00
2022-10-02T04:01:25.789Z,12.00
2022-10-02T04:02:38.210Z,12.00
2022-10-02T04:04:03.569Z,12.00
2022-10-02T04:05:29.818Z,12.00
2022-10-02T04:06:46.322Z,11.90
2022-10-02T04:07:52.989Z,11.90
2022-10-02T04:09:02.459Z,12.00
2022-10-02T04:10:14.783Z,11.90
2022-10-02T04:11:19.325Z,11.90
2022-10-02T04:12:36.024Z,11.90
2022-10-02T04:14:02.660Z,11.90
2022-10-02T04:15:18.948Z,11.90
2022-10-02T04:16:24.952Z,11.90
2022-10-02T04:17:44.944Z,11.80
2022-10-02T04:18:59.527Z,11.80
2022-10-02T04:20:10.321Z,11.80
2022-10-02T04:21:49.677Z,11.80
2022-10-02T04:23:03.902Z,11.80
2022-10-02T04:24:26.627Z,11.70
2022-10-02T04:25:32.487Z,11.80
2022-10-02T04:26:37.727Z,11.70
2022-10-02T04:27:49.579Z,11.70
2022-10-02T04:28:58.091Z,11.70
2022-10-02T04:30:04.731Z,11.70
2022-10-02T04:31:12.758Z,11.70
2022-10-02T04:32:16.970Z,11.70
2022-10-02T04:33:19.935Z,11.70
2022-10-02T04:34:21.633Z,11.60
2022-10-02T04:35:48.172Z,11.60
2022-10-02T04:37:12.049Z,11.70
2022-10-02T04:38:45.802Z,11.70
2022-10-02T04:40:15.309Z,11.70
2022-10-02T04:41:19.846Z,11.60
2022-10-02T04:42:49.259Z,11.60
2022-10-02T04:44:15.958Z,11.60
2022-10-02T04:45:43.212Z,11.60
2022-10-02T04:47:12.280Z,11.50
2022-10-02T04:48:19.844Z,11.50
2022-10-02T04:49:42.704Z,11.60
2022-10-02T04:51:13.715Z,11.50
2022-10-02T04:52:27.281Z,11.50
2022-10-02T04:53:37.859Z,11.50
2022-10-02T04:54:55.565Z,11.50
2022-10-02T04:56:14.440Z,11.50
2022-10-02T04:57:24.895Z,11.40
2022-10-02T04:58:41.737Z,11.50
2022-10-02T05:00:09.149Z,11.40
2022-10-02T05:01:10.934Z,11.40
2022-10-02T05:02:42.927Z,11.40
2022-10-02T05:03:58.726Z,11.40
2022-10-02T05:05:05.378Z,11.40
2022-10-02T05:06:39.876Z,11.40
2022-10-02T05:08:06.280Z,11.40
2022-10-02T05:09:40.184Z,11.40
2022-10-02T05:11:03.053Z,11.30
2022-10-02T05:12:22.465Z,11.40
2022-10-02T05:13:32.824Z,11.40
2022-10-02T05:14:52.797Z,11.40
2022-10-02T05:16:17.582Z,11.30
2022-10-02T05:17:39.870Z,11.30
2022-10-02T05:19:00.805Z,11.30
2022-10-02T05:20:24.146Z,11.30
2022-10-02T05:22:11.982Z,11.30
2022-10-02T05:23:44.985Z,11.30
2022-10-02T05:24:58.588Z,11.30
2022-10-02T05:26:28.063Z,11.40
2022-10-02T05:28:00.627Z,11.40
2022-10-02T05:29:31.201Z,11.40
2022-10-02T05:30:51.107Z,11.40
2022-10-02T05:32:08.143Z,11.40
2022-10-02T05:33:24.858Z,11.40
2022-10-02T05:34:52.436Z,11.40
2022-10-02T05:36:09.685Z,11.40
2022-10-02T05:37:52.613Z,11.50
2022-10-02T05:39:14.148Z,11.50
2022-10-02T05:40:29.610Z,11.50
2022-10-02T05:41:48.598Z,11.50
2022-10-02T05:43:12.744Z,11.50
2022-10-02T05:44:38.538Z,11.50
2022-10-02T05:45:52.291Z,11.60
2022-10-02T05:47:19.404Z,11.60
2022-10-02T05:48:34.634Z,11.60
2022-10-02T05:49:41.558Z,11.60
2022-10-02T05:50:49.383Z,11.70
2022-10-02T05:52:10.228Z,11.70
2022-10-02T05:53:35.289Z,11.70
2022-10-02T05:54:47.003Z,11.70
2022-10-02T05:55:54.973Z,11.80
2022-10-02T05:57:16.772Z,11.80
2022-10-02T05:58:32.840Z,11.90
2022-10-02T05:59:37.617Z,11.90
2022-10-02T06:00:47.950Z,11.90
2022-10-02T06:01:51.018Z,11.90
2022-10-02T06:03:17.903Z,11.90
2022-10-02T06:04:37.240Z,11.90
2022-10-02T06:06:10.319Z,11.90
2022-10-02T06:07:17.903Z,11.90
2022-10-02T06:08:27.430Z,11.90
2022-10-02T06:09:53.738Z,11.90
2022-10-02T06:11:01.132Z,11.90
2022-10-02T06:12:20.716Z,11.90
2022-10-02T06:13:30.112Z,11.90
2022-10-02T06:14:42.528Z,11.90
2022-10-02T06:16:00.196Z,11.90
2022-10-02T06:17:15.033Z,11.90
2022-10-02T06:18:23.880Z,11.90
2022-10-02T06:19:37.404Z,11.90
2022-10-02T06:21:10.838Z,11.90
2022-10-02T06:22:23.187Z,12.00
2022-10-02T06:23:31.300Z,12.00
2022-10-02T06:24:52.396Z,12.00
2022-10-02T06:26:09.907Z,12.00
2022-10-02T06:27:28.033Z,12.00
2022-10-02T06:28:37.961Z,12.10
2022-10-02T06:29:42.297Z,12.10
2022-10-02T06:30:49.711Z,12.10
2022-10-02T06:32:10.290Z,12.20
2022-10-02T06:33:26.216Z,12.20
2022-10-02T06:34:28.758Z,12.30
2022-10-02T06:35:54.838Z,12.30
2022-10-02T06:37:19.587Z,12.30
2022-10-02T06:38:36.707Z,12.40
2022-10-02T06:40:11.896Z,12.40
2022-10-02T06:41:16.261Z,12.40
2022-10-02T06:42:27.267Z,12.50
2022-10-02T06:43:54.809Z,12.50
2022-10-02T06:45:20.281Z,12.60
2022-10-02T06:46:50.645Z,12.60
2022-10-02T06:48:07.694Z,12.70
2022-10-02T06:49:46.426Z,12.70
2022-10-02T06:51:00.924Z,12.80
2022-10-02T06:52:12.146Z,12.80
2022-10-02T06:53:28.080Z,12.80
2022-10-02T06:54:38.711Z,12.90
2022-10-02T06:55:46.421Z,12.90
2022-10-02T06:57:06.866Z,12.90
2022-10-02T06:58:14.656Z,13.00
2022-10-02T06:59:28.309Z,13.00
2022-10-02T07:00:33.812Z,13.10
2022-10-02T07:01:59.068Z,13.10
2022-10-02T07:03:23.892Z,13.20
2022-10-02T07:04:52.828Z,13.20
2022-10-02T07:06:22.220Z,13.30
2022-10-02T07:07:42.195Z,13.30
2022-10-02T07:08:58.347Z,13.40
2022-10-02T07:10:26.129Z,13.50
2022-10-02T07:12:04.309Z,13.50
2022-10-02T07:13:22.687Z,13.50
2022-10-02T07:14:36.132Z,13.60
2022-10-02T07:15:40.889Z,13.60
2022-10-02T07:17:00.813Z,13.70
2022-10-02T07:18:22.095Z,13.70
2022-10-02T07:19:35.935Z,13.80
2022-10-02T07:20:54.961Z,13.80
2022-10-02T07:22:46.706Z,13.80
2022-10-02T07:24:21.684Z,13.80
2022-10-02T07:25:49.693Z,13.90
2022-10-02T07:27:10.286Z,14.00
2022-10-02T07:28:11.948Z,14.00
2022-10-02T07:29:51.103Z,14.00
2022-10-02T07:31:05.233Z,14.10
2022-10-02T07:32:48.529Z,14.10
2022-10-02T07:34:00.299Z,14.20
2022-10-02T07:35:37.354Z,14.20
2022-10-02T07:36:54.042Z,14.30
2022-10-02T07:38:01.696Z,14.30
2022-10-02T07:39:27.839Z,14.40
2022-10-02T07:40:47.339Z,14.40
2022-10-02T07:42:15.226Z,14.50
2022-10-02T07:43:30.874Z,14.60
2022-10-02T07:44:44.834Z,14.60
2022-10-02T07:46:07.337Z,14.70
2022-10-02T07:47:11.111Z,14.70
2022-10-02T07:48:32.385Z,14.80
2022-10-02T07:49:43.489Z,14.90
2022-10-02T07:51:02.300Z,14.90
2022-10-02T07:52:17.212Z,14.90
2022-10-02T07:53:28.259Z,14.90
2022-10-02T07:54:30.024Z,15.00
2022-10-02T07:55:33.759Z,15.00
2022-10-02T07:56:37.481Z,15.10
2022-10-02T07:57:45.716Z,15.00
2022-10-02T07:58:54.775Z,15.10
2022-10-02T08:00:06.291Z,15.10
2022-10-02T08:01:16.593Z,15.20
2022-10-02T08:02:37.532Z,15.30
2022-10-02T08:04:00.492Z,15.30
2022-10-02T08:05:09.165Z,15.30
2022-10-02T08:06:13.515Z,15.30
2022-10-02T08:07:15.290Z,15.30
2022-10-02T08:08:47.725Z,15.40
2022-10-02T08:09:52.645Z,15.40
2022-10-02T08:11:02.599Z,15.40
2022-10-02T08:12:26.233Z,15.40
2022-10-02T08:13:33.872Z,15.50
2022-10-02T08:14:41.654Z,15.50
2022-10-02T08:15:45.550Z,15.50
2022-10-02T08:16:53.702Z,15.60
2022-10-02T08:18:29.931Z,15.60
2022-10-02T08:19:39.473Z,15.60
2022-10-02T08:20:44.418Z,15.60
2022-10-02T08:21:50.043Z,15.70
2022-10-02T08:22:58.039Z,15.70
2022-10-02T08:24:06.845Z,15.70
2022-10-02T08:25:20.285Z,15.70
2022-10-02T08:26:36.964Z,15.70
2022-10-02T08:27:55.349Z,15.80
2022-10-02T08:29:17.457Z,15.80
2022-10-02T08:30:19.388Z,15.80
2022-10-02T08:31:23.658Z,15.80
2022-10-02T08:32:34.551Z,15.80
2022-10-02T08:33:37.239Z,15.90
2022-10-02T08:34:40.830Z,15.90
2022-10-02T08:36:00.437Z,15.90
2022-10-02T08:37:15.293Z,15.90
2022-10-02T08:38:30.005Z,15.90
2022-10-02T08:39:38.952Z,16.00
2022-10-02T08:41:10.183Z,16.00
2022-10-02T08:42:20.971Z,16.00
2022-10-02T08:43:45.071Z,16.00
2022-10-02T08:45:21.525Z,16.00
2022-10-02T08:46:38.581Z,16.10
2022-10-02T08:47:55.930Z,16.10
2022-10-02T08:49:18.931Z,16.20
2022-10-02T08:50:30.160Z,16.30
2022-10-02T08:52:06.968Z,16.40
2022-10-02T08:53:47.093Z,16.50
2022-10-02T08:55:26.225Z,16.50
2022-10-02T08:56:44.625Z,16.40
2022-10-02T08:58:27.337Z,16.50
2022-10-02T08:59:55.640Z,16.40
2022-10-02T09:01:38.044Z,16.50
2022-10-02T09:03:01.087Z,16.50
2022-10-02T09:04:44.751Z,16.50
2022-10-02T09:06:02.075Z,16.50
2022-10-02T09:07:09.436Z,16.50
2022-10-02T09:08:37.463Z,16.50
2022-10-02T09:09:47.879Z,16.50
2022-10-02T09:11:27.452Z,16.60
2022-10-02T09:12:58.192Z,16.60
2022-10-02T09:14:07.101Z,16.60
2022-10-02T09:15:25.912Z,16.70
2022-10-02T09:16:58.941Z,16.70
2022-10-02T09:18:03.720Z,16.60
2022-10-02T09:19:41.352Z,16.60
2022-10-02T09:20:54.100Z,16.60
2022-10-02T09:22:11.355Z,16.70
2022-10-02T09:23:22.053Z,16.80
2022-10-02T09:24:48.471Z,16.80
2022-10-02T09:26:34.514Z,16.80
2022-10-02T09:28:00.704Z,16.70
2022-10-02T09:29:19.506Z,16.60
2022-10-02T09:31:08.890Z,16.70
2022-10-02T09:32:51.567Z,16.80
2022-10-02T09:34:06.692Z,17.10
2022-10-02T09:35:47.040Z,17.20
2022-10-02T09:37:11.971Z,17.20
2022-10-02T09:38:39.444Z,17.20
2022-10-02T09:39:51.244Z,17.00
2022-10-02T09:40:56.024Z,16.90
2022-10-02T09:42:35.309Z,16.80
2022-10-02T09:44:16.755Z,16.60
2022-10-02T09:45:27.319Z,16.40
2022-10-02T09:46:35.794Z,16.40
2022-10-02T09:47:43.368Z,16.30
2022-10-02T09:49:14.393Z,16.20
2022-10-02T09:50:40.402Z,16.10
2022-10-02T09:51:44.818Z,15.90
2022-10-02T09:52:50.206Z,15.80
2022-10-02T09:54:29.150Z,15.80
2022-10-02T09:55:50.077Z,15.70
2022-10-02T09:57:36.864Z,15.70
2022-10-02T09:58:59.322Z,15.70
2022-10-02T10:00:15.945Z,15.60
2022-10-02T10:01:51.798Z,15.70
2022-10-02T10:03:17.261Z,15.90
2022-10-02T10:04:54.130Z,16.20
2022-10-02T10:06:33.219Z,16.30
2022-10-02T10:07:43.940Z,16.60
2022-10-02T10:09:16.361Z,16.80
2022-10-02T10:10:24.201Z,16.90
2022-10-02T10:11:47.925Z,17.00
2022-10-02T10:13:27.031Z,17.10
2022-10-02T10:14:48.481Z,17.30
2022-10-02T10:16:02.559Z,17.30
2022-10-02T10:17:42.160Z,17.40
2022-10-02T10:19:22.289Z,17.40
2022-10-02T10:20:54.147Z,17.30
2022-10-02T10:22:23.395Z,17.30
2022-10-02T10:23:48.121Z,17.40
2022-10-02T10:25:11.072Z,17.60
2022-10-02T10:26:49.766Z,17.60
2022-10-02T10:28:29.026Z,17.60
2022-10-02T10:30:03.934Z,17.70
2022-10-02T10:31:39.105Z,17.90
2022-10-02T10:33:14.619Z,18.00
2022-10-02T10:34:57.720Z,18.10
2022-10-02T10:36:08.166Z,18.10
2022-10-02T10:37:45.698Z,18.10
2022-10-02T10:38:58.239Z,18.10
2022-10-02T10:40:23.956Z,18.20
2022-10-02T10:41:49.247Z,18.10
2022-10-02T10:43:07.760Z,18.00
2022-10-02T10:44:42.903Z,18.00
2022-10-02T10:46:12.698Z,17.90
2022-10-02T10:47:51.761Z,17.90
2022-10-02T10:49:31.716Z,17.70
2022-10-02T10:50:52.314Z,17.60
2022-10-02T10:52:14.175Z,17.50
2022-10-02T10:53:28.299Z,17.40
2022-10-02T10:54:51.390Z,17.30
2022-10-02T10:56:21.755Z,17.20
2022-10-02T10:57:52.007Z,17.20
2022-10-02T10:59:29.561Z,17.20
2022-10-02T11:00:56.153Z,17.10
2022-10-02T11:02:37.922Z,17.00
2022-10-02T11:04:01.536Z,17.00
2022-10-02T11:05:06.733Z,17.00
2022-10-02T11:06:08.396Z,16.90
2022-10-02T11:07:39.346Z,16.90
2022-10-02T11:09:10.756Z,16.80
2022-10-02T11:10:21.455Z,16.80
2022-10-02T11:11:57.710Z,16.80
2022-10-02T11:13:26.983Z,16.80
2022-10-02T11:14:52.560Z,16.80
2022-10-02T11:16:20.151Z,16.80
2022-10-02T11:17:43.399Z,16.70
2022-10-02T11:19:03.786Z,16.60
2022-10-02T11:20:26.297Z,16.50
2022-10-02T11:21:39.760Z,16.50
2022-10-02T11:23:12.591Z,16.50
2022-10-02T11:24:39.795Z,16.50
2022-10-02T11:25:52.745Z,16.50
2022-10-02T11:27:10.900Z,16.50
2022-10-02T11:28:44.915Z,16.50
2022-10-02T11:30:24.078Z,16.50
2022-10-02T11:31:55.985Z,16.50
2022-10-02T11:33:39.205Z,16.50
2022-10-02T11:35:20.909Z,16.40
2022-10-02T11:36:42.970Z,16.40
2022-10-02T11:38:03.848Z,16.40
2022-10-02T11:39:14.938Z,16.40
2022-10-02T11:40:37.476Z,16.40
2022-10-02T11:42:05.558Z,16.50
2022-10-02T11:43:16.237Z,16.50
2022-10-02T11:44:34.644Z,16.50
2022-10-02T11:46:00.346Z,16.50
2022-10-02T11:47:20.264Z,16.50
2022-10-02T11:48:43.855Z,16.60
2022-10-02T11:50:01.885Z,16.70
2022-10-02T11:51:10.861Z,16.80
2022-10-02T11:52:34.228Z,16.90
2022-10-02T11:54:10.874Z,16.90
2022-10-02T11:55:30.636Z,16.90
2022-10-02T11:57:01.881Z,16.80
2022-10-02T11:58:21.091Z,16.80
2022-10-02T11:59:56.373Z,16.70
2022-10-02T12:01:33.167Z,16.70
2022-10-02T12:02:41.431Z,16.70
2022-10-02T12:04:04.290Z,16.70
2022-10-02T12:05:38.018Z,16.70
2022-10-02T12:07:17.503Z,16.90
2022-10-02T12:08:32.533Z,17.00
2022-10-02T12:10:21.928Z,17.10
2022-10-02T12:11:42.114Z,17.20
2022-10-02T12:13:15.976Z,17.20
2022-10-02T12:14:34.688Z,17.20
2022-10-02T12:16:04.279Z,17.30
2022-10-02T12:17:34.321Z,17.20
2022-10-02T12:19:01.714Z,17.00
2022-10-02T12:20:41.517Z,16.90
2022-10-02T12:22:23.534Z,16.90
2022-10-02T12:24:03.858Z,16.80
2022-10-02T12:25:55.221Z,16.80
2022-10-02T12:27:15.877Z,16.70
2022-10-02T12:28:45.483Z,16.80
2022-10-02T12:30:16.185Z,16.90
2022-10-02T12:31:33.556Z,16.90
2022-10-02T12:32:45.290Z,16.80
2022-10-02T12:34:01.691Z,16.90
2022-10-02T12:35:32.695Z,16.80
2022-10-02T12:36:58.371Z,16.90
2022-10-02T12:38:16.639Z,16.80
2022-10-02T12:39:30.144Z,16.90
2022-10-02T12:40:52.599Z,16.90
2022-10-02T12:42:31.732Z,17.00
2022-10-02T12:44:17.090Z,17.00
2022-10-02T12:45:37.219Z,16.90
2022-10-02T12:46:47.787Z,16.80
2022-10-02T12:48:04.323Z,16.70
2022-10-02T12:49:25.292Z,16.70
2022-10-02T12:50:44.997Z,16.60
2022-10-02T12:52:01.007Z,16.60
2022-10-02T12:53:36.414Z,16.60
2022-10-02T12:55:07.381Z,16.70
2022-10-02T12:56:39.990Z,16.70
2022-10-02T12:57:55.419Z,16.70
2022-10-02T12:59:06.204Z,16.70
2022-10-02T13:00:16.990Z,16.70
2022-10-02T13:01:31.721Z,16.70
2022-10-02T13:03:00.311Z,16.70
2022-10-02T13:04:19.269Z,16.70
2022-10-02T13:05:46.804Z,16.80
2022-10-02T13:07:27.571Z,16.90
2022-10-02T13:08:48.338Z,16.90
2022-10-02T13:10:05.188Z,16.90
2022-10-02T13:11:18.532Z,17.00
2022-10-02T13:12:52.413Z,16.90
2022-10-02T13:14:02.641Z,17.00
2022-10-02T13:15:18.833Z,16.90
2022-10-02T13:16:44.937Z,16.90
2022-10-02T13:18:09.111Z,17.00
2022-10-02T13:19:31.067Z,17.00
2022-10-02T13:21:11.388Z,17.00
2022-10-02T13:22:22.404Z,17.00
2022-10-02T13:23:54.302Z,16.90
2022-10-02T13:25:18.948Z,16.90
2022-10-02T13:26:41.179Z,17.00
2022-10-02T13:27:59.275Z,17.10
2022-10-02T13:29:03.810Z,17.10
2022-10-02T13:30:11.243Z,17.10
2022-10-02T13:31:27.449Z,17.10
2022-10-02T13:32:52.196Z,17.10
2022-10-02T13:34:12.972Z,17.00
2022-10-02T13:35:36.235Z,17.00
2022-10-02T13:36:52.918Z,17.00
2022-10-02T13:38:17.979Z,16.90
2022-10-02T13:39:37.034Z,16.90
2022-10-02T13:40:47.452Z,16.80
2022-10-02T13:42:23.440Z,16.70
2022-10-02T13:43:25.043Z,16.60
2022-10-02T13:44:29.747Z,16.60
2022-10-02T13:45:47.643Z,16.60
2022-10-02T13:47:23.376Z,16.60
2022-10-02T13:48:43.895Z,16.50
2022-10-02T13:49:54.056Z,16.40
2022-10-02T13:51:18.388Z,16.30
2022-10-02T13:52:22.778Z,16.30
2022-10-02T13:53:43.271Z,16.30
2022-10-02T13:55:23.305Z,16.30
2022-10-02T13:57:03.353Z,16.40
2022-10-02T13:58:36.423Z,16.50
2022-10-02T13:59:58.520Z,16.40
2022-10-02T14:01:21.479Z,16.50
2022-10-02T14:02:41.699Z,16.50
2022-10-02T14:04:14.860Z,16.50
2022-10-02T14:05:23.614Z,16.60
2022-10-02T14:07:05.382Z,16.50
2022-10-02T14:08:39.202Z,16.60
2022-10-02T14:09:53.019Z,16.60
2022-10-02T14:11:29.000Z,16.60
2022-10-02T14:12:46.078Z,16.70
2022-10-02T14:14:06.683Z,16.80
2022-10-02T14:15:31.676Z,16.80
2022-10-02T14:16:54.563Z,16.80
2022-10-02T14:18:21.185Z,16.80
2022-10-02T14:19:39.780Z,16.80
2022-10-02T14:20:55.640Z,16.80
2022-10-02T14:22:38.819Z,16.80
2022-10-02T14:24:15.423Z,16.80
2022-10-02T14:25:48.949Z,16.70
2022-10-02T14:27:05.988Z,16.60
2022-10-02T14:28:22.074Z,16.60
2022-10-02T14:29:40.998Z,16.50
2022-10-02T14:30:45.634Z,16.40
2022-10-02T14:32:29.591Z,16.40
2022-10-02T14:33:49.960Z,16.40
2022-10-02T14:35:19.336Z,16.30
2022-10-02T14:36:38.568Z,16.30
2022-10-02T14:37:53.152Z,16.20
2022-10-02T14:39:12.521Z,16.20
2022-10-02T14:40:19.374Z,16.20
2022-10-02T14:41:39.306Z,16.10
2022-10-02T14:43:08.995Z,16.10
2022-10-02T14:44:31.506Z,16.10
2022-10-02T14:46:00.032Z,16.10
2022-10-02T14:47:21.262Z,16.10
2022-10-02T14:48:34.956Z,16.20
2022-10-02T14:49:53.932Z,16.20
2022-10-02T14:51:28.866Z,16.20
2022-10-02T14:52:46.473Z,16.10
2022-10-02T14:54:21.400Z,16.10
2022-10-02T14:55:38.639Z,16.00
2022-10-02T14:57:01.804Z,16.00
2022-10-02T14:58:06.174Z,16.00
2022-10-02T14:59:10.889Z,15.90
2022-10-02T15:00:21.589Z,15.90
2022-10-02T15:01:26.424Z,15.80
2022-10-02T15:02:54.201Z,15.80
2022-10-02T15:04:28.336Z,15.80
2022-10-02T15:05:47.835Z,15.80
2022-10-02T15:06:56.274Z,15.80
2022-10-02T15:07:58.627Z,15.80
2022-10-02T15:09:27.568Z,15.70
2022-10-02T15:10:34.629Z,15.70
2022-10-02T15:11:36.473Z,15.70
2022-10-02T15:13:01.621Z,15.70
2022-10-02T15:14:19.699Z,15.70
2022-10-02T15:15:33.413Z,15.70
2022-10-02T15:17:18.795Z,15.70
2022-10-02T15:18:25.204Z,15.60
2022-10-02T15:19:38.018Z,15.60
2022-10-02T15:20:59.413Z,15.60
2022-10-02T15:22:19.373Z,15.50
2022-10-02T15:23:41.480Z,15.60
2022-10-02T15:24:58.547Z,15.50
2022-10-02T15:26:26.168Z,15.50
2022-10-02T15:27:50.744Z,15.50
2022-10-02T15:29:07.913Z,15.50
2022-10-02T15:30:23.714Z,15.50
2022-10-02T15:31:44.310Z,15.50
2022-10-02T15:33:16.587Z,15.50
2022-10-02T15:34:40.549Z,15.50
2022-10-02T15:35:52.333Z,15.50
2022-10-02T15:37:05.049Z,15.50
2022-10-02T15:38:19.048Z,15.40
2022-10-02T15:39:54.887Z,15.50
2022-10-02T15:41:20.801Z,15.40
2022-10-02T15:42:53.206Z,15.40
2022-10-02T15:44:51.067Z,15.40
2022-10-02T15:46:16.864Z,15.40
2022-10-02T15:47:24.599Z,15.40
2022-10-02T15:48:58.531Z,15.40
2022-10-02T15:50:10.573Z,15.30
2022-10-02T15:51:14.992Z,15.30
2022-10-02T15:52:37.081Z,15.20
2022-10-02T15:54:12.436Z,15.20
2022-10-02T15:55:31.781Z,15.20
2022-10-02T15:56:47.158Z,15.20
2022-10-02T15:58:03.924Z,15.20
2022-10-02T15:59:17.600Z,15.20
2022-10-02T16:00:22.541Z,15.10
2022-10-02T16:01:27.067Z,15.10
2022-10-02T16:03:09.665Z,15.10
2022-10-02T16:04:29.465Z,15.10
2022-10-02T16:05:31.073Z,15.00
2022-10-02T16:06:53.562Z,15.00
2022-10-02T16:08:16.618Z,15.00
2022-10-02T16:09:27.685Z,15.00
2022-10-02T16:10:55.930Z,14.90
2022-10-02T16:12:14.166Z,14.90
2022-10-02T16:13:55.088Z,14.90
2022-10-02T16:15:15.131Z,14.80
2022-10-02T16:16:46.251Z,14.90
2022-10-02T16:18:20.327Z,14.80
2022-10-02T16:19:53.794Z,14.80
2022-10-02T16:21:45.086Z,14.70
2022-10-02T16:23:19.119Z,14.70
2022-10-02T16:24:26.915Z,14.70
2022-10-02T16:25:54.200Z,14.70
2022-10-02T16:27:27.957Z,14.70
2022-10-02T16:28:57.875Z,14.60
2022-10-02T16:30:13.327Z,14.60
2022-10-02T16:31:45.513Z,14.60
2022-10-02T16:33:05.090Z,14.60
2022-10-02T16:34:21.761Z,14.60
2022-10-02T16:35:55.656Z,14.60
2022-10-02T16:37:09.629Z,14.50
2022-10-02T16:38:17.997Z,14.50
2022-10-02T16:39:38.677Z,14.50
2022-10-02T16:40:54.008Z,14.50
2022-10-02T16:42:21.870Z,14.50
2022-10-02T16:43:43.147Z,14.40
2022-10-02T16:45:02.901Z,14.40
2022-10-02T16:46:44.067Z,14.40
2022-10-02T16:47:48.983Z,14.40
2022-10-02T16:49:08.363Z,14.40
2022-10-02T16:50:13.046Z,14.40
2022-10-02T16:51:28.066Z,14.40
2022-10-02T16:52:48.899Z,14.40
2022-10-02T16:53:54.721Z,14.40
2022-10-02T16:55:35.649Z,14.40
2022-10-02T16:57:18.863Z,14.40